KCLM/CLM METAR and TAF weather

Enter ICAO airport designator
Station Type Date Time Source
KCLM METAR 2020/02/21 13:53 UTC NOAA

KCLM 211353Z AUTO 00000KT 10SM CLR M02/M03 A3021 RMK AO2 SLP231 T10221033


Station Type Date Time Source
KCLM Decoded METAR 2020/02/21 13:53 UTC NOAA

PORT ANGELES FAIRCHILD INTERNATIONAL , WA, United States (KCLM) 48-07N 123-30W 85M
Feb 21, 2020 - 08:53 AM EST / 2020.02.21 1353 UTC
Wind: Calm:0
Visibility: 10 mile(s):0
Sky conditions: clear
Temperature: 28.0 F (-2.2 C)
Dew Point: 26.1 F (-3.3 C)
Relative Humidity: 92%
Pressure (altimeter): 30.21 in. Hg (1023 hPa)
ob: KCLM 211353Z AUTO 00000KT 10SM CLR M02/M03 A3021 RMK AO2 SLP231 T10221033
cycle: 14

Station Type Date Time Source
KCLM TAF 2020/02/21 12:22 UTC NOAA

TAF KCLM 211120Z 2112/2212 VRB03KT P6SM BKN250
FM220000 26006KT P6SM SCT030 BKN120 BKN200
FM220600 26010KT P6SM BKN015 BKN050

Example: see airport list